Terminal Aerodrome Forecast
Issued by NWS

Home | Current Version | Previous Version | Text Only | Print | Product List | Glossary On
Versions: 1 2 3 4 5 6 7 8 9 10 11 12 13 14 15 16 17 18 19 20 21 22 23 24 25 26 27
000
FTPQ31 PGUM 260500
TAFPQ
TAF

PGWT 260534Z 2606/2706 10014KT P6SM FEW016
     FM260800 09008KT P6SM SCT018=

USA.gov is the U.S. government's official web portal to all federal, state and local government web resources and services.